Terminal Aerodrome Forecast
Issued by NWS Jackson, KY

Home | Current Version | Previous Version | Text Only | Print | Product List | Glossary On
Versions: 1 2 3 4 5 6 7 8 9 10 11 12 13 14 15 16 17 18 19
000
FTUS43 KJKL 180249 AAA
TAFLOZ
TAF AMD
KLOZ 180249Z 1803/1824 27012G18KT P6SM BKN035
     FM180330 27010G17KT P6SM BKN025
     FM180700 28009KT P6SM -DZ OVC008
     FM181600 28005KT P6SM BKN010
     FM182100 28004KT P6SM BKN040
     FM182300 VRB03KT P6SM SCT080=

USA.gov is the U.S. government's official web portal to all federal, state and local government web resources and services.